createdAt,value
2018-05-17T00:02:06.377Z,49.93
2018-05-17T00:04:35.857Z,45.83
2018-05-17T00:07:04.630Z,44.97
2018-05-17T00:09:34.504Z,43.33
2018-05-17T00:12:03.978Z,39.70
2018-05-17T00:14:33.820Z,42.20
2018-05-17T00:17:03.297Z,35.70
2018-05-17T00:19:32.772Z,40.93
2018-05-17T00:22:02.213Z,43.40
2018-05-17T00:24:31.669Z,53.00
2018-05-17T00:27:01.146Z,39.53
2018-05-17T00:29:30.822Z,35.47
2018-05-17T00:32:00.294Z,32.23
2018-05-17T00:34:29.957Z,40.87
2018-05-17T00:36:59.466Z,34.97
2018-05-17T00:39:28.948Z,42.03
2018-05-17T00:41:58.396Z,35.70
2018-05-17T00:44:27.860Z,29.20
2018-05-17T00:46:57.430Z,54.40
2018-05-17T00:49:26.870Z,38.43
2018-05-17T00:51:56.342Z,43.90
2018-05-17T00:54:25.812Z,48.80
2018-05-17T00:56:55.298Z,48.00
2018-05-17T00:59:24.765Z,45.10
2018-05-17T01:01:54.242Z,43.93
2018-05-17T01:04:23.715Z,38.07
2018-05-17T01:06:52.876Z,37.90
2018-05-17T01:09:22.352Z,49.37
2018-05-17T01:11:52.217Z,37.90
2018-05-17T01:14:21.388Z,37.00
2018-05-17T01:16:50.845Z,33.77
2018-05-17T01:19:20.299Z,60.30
2018-05-17T01:21:49.745Z,36.33
2018-05-17T01:24:19.273Z,38.87
2018-05-17T01:26:48.710Z,37.10
2018-05-17T01:29:18.181Z,43.40
2018-05-17T01:31:47.642Z,31.60
2018-05-17T01:34:17.545Z,40.60
2018-05-17T01:36:58.406Z,35.63
2018-05-17T01:39:27.592Z,38.73
2018-05-17T01:41:57.039Z,30.67
2018-05-17T01:44:26.506Z,42.03
2018-05-17T01:46:56.397Z,34.07
2018-05-17T01:49:25.568Z,32.63
2018-05-17T01:51:55.061Z,31.23
2018-05-17T01:54:24.897Z,34.13
2018-05-17T01:56:54.760Z,32.30
2018-05-17T01:59:24.212Z,41.90
2018-05-17T02:01:53.687Z,35.70
2018-05-17T02:04:23.161Z,31.67
2018-05-17T02:06:52.602Z,30.43
2018-05-17T02:09:22.229Z,30.70
2018-05-17T02:11:52.112Z,34.63
2018-05-17T02:14:21.592Z,43.07
2018-05-17T02:16:51.049Z,28.70
2018-05-17T02:19:20.516Z,43.70
2018-05-17T02:21:50.172Z,42.47
2018-05-17T02:24:19.644Z,28.43
2018-05-17T02:26:49.108Z,27.60
2018-05-17T02:29:18.565Z,36.53
2018-05-17T02:31:48.018Z,29.87
2018-05-17T02:34:17.470Z,33.57
2018-05-17T02:36:46.930Z,27.83
2018-05-17T02:39:16.388Z,40.80
2018-05-17T02:41:45.921Z,30.60
2018-05-17T02:44:15.372Z,25.43
2018-05-17T02:46:44.490Z,39.43
2018-05-17T02:49:13.996Z,38.50
2018-05-17T02:51:43.634Z,40.00
2018-05-17T02:54:13.127Z,28.97
2018-05-17T02:56:42.776Z,33.23
2018-05-17T02:59:12.227Z,35.33
2018-05-17T03:01:41.705Z,50.10
2018-05-17T03:04:11.149Z,35.17
2018-05-17T03:06:40.626Z,33.43
2018-05-17T03:09:09.828Z,42.53
2018-05-17T03:11:39.698Z,33.43
2018-05-17T03:14:09.185Z,36.97
2018-05-17T03:16:39.111Z,45.43
2018-05-17T03:19:08.708Z,28.47
2018-05-17T03:21:38.201Z,24.57
2018-05-17T03:24:07.651Z,23.40
2018-05-17T03:26:37.113Z,25.07
2018-05-17T03:29:06.562Z,36.50
2018-05-17T03:31:36.000Z,34.13
2018-05-17T03:34:05.494Z,36.83
2018-05-17T03:36:34.942Z,32.87
2018-05-17T03:39:03.515Z,51.10
2018-05-17T03:41:32.729Z,33.07
2018-05-17T03:44:02.177Z,42.10
2018-05-17T03:46:31.739Z,29.33
2018-05-17T03:49:01.304Z,33.63
2018-05-17T03:51:30.412Z,43.17
2018-05-17T03:53:59.884Z,43.87
2018-05-17T03:56:29.733Z,45.83
2018-05-17T03:58:59.189Z,36.50
2018-05-17T04:01:39.936Z,47.63
2018-05-17T04:04:20.397Z,36.70
2018-05-17T04:06:49.559Z,34.17
2018-05-17T04:09:19.155Z,49.07
2018-05-17T04:11:48.641Z,36.80
2018-05-17T04:14:18.497Z,39.10
2018-05-17T04:16:47.984Z,38.80
2018-05-17T04:19:17.154Z,33.67
2018-05-17T04:21:46.608Z,44.17
2018-05-17T04:24:16.097Z,38.00
2018-05-17T04:26:45.567Z,41.73
2018-05-17T04:29:15.671Z,41.53
2018-05-17T04:31:45.121Z,42.70
2018-05-17T04:34:14.959Z,42.97
2018-05-17T04:36:44.421Z,47.20
2018-05-17T04:39:13.886Z,44.90
2018-05-17T04:41:43.772Z,48.97
2018-05-17T04:44:13.214Z,35.37
2018-05-17T04:46:42.660Z,44.37
2018-05-17T04:49:12.534Z,36.40
2018-05-17T04:51:41.990Z,49.57
2018-05-17T04:54:11.437Z,45.53
2018-05-17T04:56:40.906Z,30.53
2018-05-17T04:59:10.382Z,44.03
2018-05-17T05:01:40.466Z,35.80
2018-05-17T05:04:09.899Z,37.17
2018-05-17T05:06:39.374Z,42.80
2018-05-17T05:09:08.630Z,49.33
2018-05-17T05:11:38.045Z,40.97
2018-05-17T05:14:07.528Z,30.60
2018-05-17T05:16:37.188Z,43.77
2018-05-17T05:19:06.621Z,39.83
2018-05-17T05:21:36.112Z,40.73
2018-05-17T05:24:05.676Z,42.97
2018-05-17T05:26:35.554Z,39.63
2018-05-17T05:29:05.009Z,38.43
2018-05-17T05:31:34.506Z,30.13
2018-05-17T05:34:03.826Z,37.03
2018-05-17T05:36:33.273Z,31.17
2018-05-17T05:39:02.497Z,37.90
2018-05-17T05:41:31.888Z,34.07
2018-05-17T05:44:01.346Z,40.43
2018-05-17T05:46:31.193Z,30.03
2018-05-17T05:49:00.744Z,24.93
2018-05-17T05:51:30.208Z,30.20
2018-05-17T05:54:00.077Z,39.40
2018-05-17T05:56:29.538Z,32.10
2018-05-17T05:58:59.000Z,29.27
2018-05-17T06:01:28.452Z,43.23
2018-05-17T06:03:57.904Z,36.20
2018-05-17T06:06:27.401Z,40.30
2018-05-17T06:08:56.840Z,41.07
2018-05-17T06:11:26.326Z,29.57
2018-05-17T06:13:55.770Z,35.20
2018-05-17T06:16:25.244Z,36.00
2018-05-17T06:18:54.717Z,35.03
2018-05-17T06:21:24.200Z,39.47
2018-05-17T06:23:53.872Z,34.87
2018-05-17T06:26:23.226Z,41.27
2018-05-17T06:28:52.704Z,43.10
2018-05-17T06:31:22.180Z,39.70
2018-05-17T06:33:51.654Z,38.93
2018-05-17T06:36:21.124Z,39.20
2018-05-17T06:38:50.601Z,39.80
2018-05-17T06:41:20.118Z,40.50
2018-05-17T06:43:49.673Z,46.90
2018-05-17T06:46:19.244Z,37.40
2018-05-17T06:48:48.729Z,37.57
2018-05-17T06:51:18.197Z,49.57
2018-05-17T06:53:47.676Z,55.47
2018-05-17T06:56:17.154Z,47.00
2018-05-17T06:58:47.004Z,50.43
2018-05-17T07:01:16.586Z,39.37
2018-05-17T07:03:46.557Z,45.80
2018-05-17T07:06:16.001Z,51.93
2018-05-17T07:08:45.486Z,40.47
2018-05-17T07:11:15.489Z,49.97
2018-05-17T07:13:44.940Z,49.67
2018-05-17T07:16:14.428Z,41.33
2018-05-17T07:18:44.289Z,38.07
2018-05-17T07:21:13.627Z,42.37
2018-05-17T07:23:43.104Z,45.17
2018-05-17T07:26:12.586Z,44.10
2018-05-17T07:28:42.029Z,36.03
2018-05-17T07:31:11.500Z,30.57
2018-05-17T07:33:40.953Z,31.07
2018-05-17T07:36:10.431Z,46.87
2018-05-17T07:38:40.292Z,32.33
2018-05-17T07:41:09.736Z,38.93
2018-05-17T07:43:39.340Z,41.40
2018-05-17T07:46:08.798Z,38.23
2018-05-17T07:48:38.252Z,31.27
2018-05-17T07:51:07.724Z,32.83
2018-05-17T07:53:36.824Z,34.27
2018-05-17T07:56:06.277Z,28.43
2018-05-17T07:58:35.748Z,30.87
2018-05-17T08:01:05.198Z,36.77
2018-05-17T08:03:34.662Z,35.93
2018-05-17T08:06:05.172Z,28.97
2018-05-17T08:08:35.881Z,28.03
2018-05-17T08:11:05.030Z,27.73
2018-05-17T08:13:34.468Z,26.30
2018-05-17T08:16:04.074Z,22.23
2018-05-17T08:18:33.696Z,23.23
2018-05-17T08:21:03.181Z,25.90
2018-05-17T08:23:32.631Z,25.27
2018-05-17T08:26:01.777Z,36.50
2018-05-17T08:28:31.629Z,33.93
2018-05-17T08:31:01.105Z,30.23
2018-05-17T08:33:30.583Z,43.60
2018-05-17T08:36:00.041Z,23.53
2018-05-17T08:38:29.514Z,30.90
2018-05-17T08:40:58.952Z,61.47
2018-05-17T08:43:28.405Z,30.93
2018-05-17T08:45:57.870Z,38.10
2018-05-17T08:48:27.344Z,40.87
2018-05-17T08:50:57.037Z,41.40
2018-05-17T08:53:27.040Z,41.20
2018-05-17T08:55:56.495Z,47.83
2018-05-17T08:58:25.969Z,42.53
2018-05-17T09:00:55.809Z,46.40
2018-05-17T09:03:25.269Z,38.93
2018-05-17T09:05:54.721Z,35.40
2018-05-17T09:08:24.177Z,37.93
2018-05-17T09:10:54.022Z,34.77
2018-05-17T09:13:23.479Z,31.97
2018-05-17T09:15:52.628Z,33.47
2018-05-17T09:18:22.088Z,41.23
2018-05-17T09:20:51.624Z,42.20
2018-05-17T09:23:21.089Z,35.13
2018-05-17T09:25:50.948Z,35.17
2018-05-17T09:28:20.406Z,31.53
2018-05-17T09:30:49.890Z,47.20
2018-05-17T09:33:19.345Z,41.57
2018-05-17T09:35:49.018Z,47.70
2018-05-17T09:38:18.585Z,48.43
2018-05-17T09:40:48.030Z,47.27
2018-05-17T09:43:17.878Z,42.73
2018-05-17T09:45:47.704Z,44.77
2018-05-17T09:48:17.189Z,47.77
2018-05-17T09:50:46.649Z,42.80
2018-05-17T09:53:16.112Z,47.80
2018-05-17T09:55:45.580Z,40.03
2018-05-17T09:58:15.429Z,40.27
2018-05-17T10:00:48.728Z,34.00
2018-05-17T10:03:17.853Z,42.57
2018-05-17T10:05:47.296Z,33.50
2018-05-17T10:08:16.749Z,38.30
2018-05-17T10:10:46.237Z,41.50
2018-05-17T10:13:15.713Z,43.53
2018-05-17T10:15:45.546Z,45.53
2018-05-17T10:18:15.003Z,33.63
2018-05-17T10:20:44.479Z,32.00
2018-05-17T10:23:14.347Z,32.07
2018-05-17T10:25:43.794Z,41.60
2018-05-17T10:28:13.252Z,35.17
2018-05-17T10:30:43.116Z,32.70
2018-05-17T10:33:12.556Z,25.43
2018-05-17T10:35:42.004Z,25.00
2018-05-17T10:38:11.913Z,27.57
2018-05-17T10:40:41.096Z,41.50
2018-05-17T10:43:10.604Z,31.40
2018-05-17T10:45:40.069Z,30.87
2018-05-17T10:48:09.667Z,24.23
2018-05-17T10:50:39.153Z,31.87
2018-05-17T10:53:08.596Z,29.60
2018-05-17T10:55:38.060Z,29.90
2018-05-17T10:58:07.519Z,32.27
2018-05-17T11:00:36.957Z,35.00
2018-05-17T11:03:06.405Z,29.97
2018-05-17T11:05:35.854Z,30.10
2018-05-17T11:08:05.746Z,33.00
2018-05-17T11:10:35.213Z,32.00
2018-05-17T11:13:04.737Z,27.17
2018-05-17T11:15:34.598Z,40.17
2018-05-17T11:18:03.706Z,34.73
2018-05-17T11:20:33.756Z,26.37
2018-05-17T11:23:03.217Z,31.53
2018-05-17T11:25:32.653Z,29.83
2018-05-17T11:28:02.529Z,28.90
2018-05-17T11:30:31.989Z,24.70
2018-05-17T11:33:01.518Z,37.63
2018-05-17T11:35:31.156Z,22.20
2018-05-17T11:38:00.649Z,25.30
2018-05-17T11:40:30.109Z,31.50
2018-05-17T11:42:59.285Z,24.37
2018-05-17T11:45:28.720Z,24.60
2018-05-17T11:47:58.610Z,23.20
2018-05-17T11:50:28.086Z,22.50
2018-05-17T11:52:58.694Z,19.13
2018-05-17T11:55:28.125Z,18.90
2018-05-17T11:57:58.049Z,23.00
2018-05-17T12:00:27.537Z,21.03
2018-05-17T12:02:57.242Z,24.73
2018-05-17T12:05:26.721Z,21.10
2018-05-17T12:07:56.180Z,27.23
2018-05-17T12:10:25.676Z,22.70
2018-05-17T12:12:55.545Z,22.90
2018-05-17T12:15:25.002Z,19.27
2018-05-17T12:17:54.523Z,24.23
2018-05-17T12:20:23.988Z,24.83
2018-05-17T12:22:53.874Z,25.33
2018-05-17T12:25:23.563Z,23.50
2018-05-17T12:27:52.981Z,23.23
2018-05-17T12:30:22.444Z,26.13
2018-05-17T12:32:51.964Z,19.77
2018-05-17T12:35:21.428Z,18.23
2018-05-17T12:37:50.869Z,21.23
2018-05-17T12:40:20.320Z,17.53
2018-05-17T12:42:49.904Z,21.87
2018-05-17T12:45:19.452Z,15.47
2018-05-17T12:47:48.903Z,26.17
2018-05-17T12:50:18.777Z,18.03
2018-05-17T12:52:48.237Z,21.73
2018-05-17T12:55:17.336Z,22.00
2018-05-17T12:57:46.790Z,20.07
2018-05-17T13:00:16.627Z,25.80
2018-05-17T13:02:45.788Z,25.23
2018-05-17T13:05:23.297Z,26.43
2018-05-17T13:07:52.725Z,20.50
2018-05-17T13:10:22.179Z,20.27
2018-05-17T13:12:52.016Z,18.80
2018-05-17T13:15:21.461Z,19.70
2018-05-17T13:17:50.982Z,16.60
2018-05-17T13:20:20.429Z,19.40
2018-05-17T13:22:50.020Z,17.00
2018-05-17T13:25:19.524Z,23.40
2018-05-17T13:27:49.104Z,20.17
2018-05-17T13:30:18.667Z,19.60
2018-05-17T13:32:48.256Z,13.60
2018-05-17T13:35:17.697Z,27.83
2018-05-17T13:37:47.529Z,19.83
2018-05-17T13:40:21.022Z,17.67
2018-05-17T13:42:50.529Z,15.07
2018-05-17T13:45:20.618Z,20.53
2018-05-17T13:47:50.158Z,22.00
2018-05-17T13:50:19.732Z,17.37
2018-05-17T13:52:49.568Z,18.00
2018-05-17T13:55:19.473Z,16.83
2018-05-17T13:57:48.913Z,15.83
2018-05-17T14:00:18.774Z,18.03
2018-05-17T14:02:48.279Z,20.90
2018-05-17T14:05:17.883Z,19.80
2018-05-17T14:07:47.752Z,19.30
2018-05-17T14:10:17.208Z,11.43
2018-05-17T14:12:46.645Z,20.07
2018-05-17T14:15:16.279Z,19.20
2018-05-17T14:17:46.237Z,21.40
2018-05-17T14:20:15.715Z,20.30
2018-05-17T14:22:45.184Z,16.63
2018-05-17T14:25:14.649Z,16.00
2018-05-17T14:27:44.130Z,16.63
2018-05-17T14:30:13.581Z,14.60
2018-05-17T14:32:43.023Z,20.50
2018-05-17T14:35:12.496Z,22.20
2018-05-17T14:37:41.957Z,13.47
2018-05-17T14:40:11.389Z,15.03
2018-05-17T14:42:41.225Z,16.53
2018-05-17T14:45:11.251Z,14.17
2018-05-17T14:47:41.109Z,18.87
2018-05-17T14:50:10.553Z,17.33
2018-05-17T14:52:40.050Z,15.60
2018-05-17T14:55:09.511Z,16.37
2018-05-17T14:57:39.135Z,27.27
2018-05-17T15:00:08.773Z,16.10
2018-05-17T15:02:38.381Z,20.50
2018-05-17T15:05:07.540Z,20.00
2018-05-17T15:07:37.432Z,24.33
2018-05-17T15:10:08.671Z,16.23
2018-05-17T15:12:38.107Z,17.47
2018-05-17T15:15:07.573Z,16.37
2018-05-17T15:17:37.038Z,10.97
2018-05-17T15:20:06.488Z,26.00
2018-05-17T15:22:35.973Z,14.70
2018-05-17T15:25:05.454Z,15.90
2018-05-17T15:27:35.372Z,16.47
2018-05-17T15:30:04.310Z,17.60
2018-05-17T15:32:33.773Z,12.03
2018-05-17T15:35:03.249Z,19.50
2018-05-17T15:37:32.712Z,16.50
2018-05-17T15:40:02.184Z,17.43
2018-05-17T15:42:32.090Z,15.70
2018-05-17T15:45:02.431Z,24.10
2018-05-17T15:47:31.901Z,13.90
2018-05-17T15:50:01.393Z,19.03
2018-05-17T15:52:31.276Z,20.37
2018-05-17T15:55:00.718Z,19.60
2018-05-17T15:57:30.581Z,15.70
2018-05-17T16:00:00.012Z,16.23
2018-05-17T16:02:29.485Z,20.10
2018-05-17T16:04:58.944Z,12.73
2018-05-17T16:07:28.413Z,23.93
2018-05-17T16:09:57.864Z,15.60
2018-05-17T16:12:27.708Z,20.37
2018-05-17T16:14:57.221Z,16.80
2018-05-17T16:17:26.845Z,20.80
2018-05-17T16:19:56.330Z,14.63
2018-05-17T16:22:25.813Z,19.77
2018-05-17T16:24:55.260Z,23.60
2018-05-17T16:27:24.765Z,14.50
2018-05-17T16:29:54.799Z,14.40
2018-05-17T16:32:24.234Z,16.90
2018-05-17T16:34:53.680Z,20.23
2018-05-17T16:37:23.116Z,11.80
2018-05-17T16:39:52.601Z,14.23
2018-05-17T16:42:22.059Z,18.20
2018-05-17T16:44:51.934Z,18.50
2018-05-17T16:47:21.430Z,17.13
2018-05-17T16:49:50.910Z,13.20
2018-05-17T16:52:20.355Z,20.70
2018-05-17T16:54:49.830Z,19.03
2018-05-17T16:57:19.284Z,22.37
2018-05-17T16:59:49.153Z,23.13
2018-05-17T17:02:18.660Z,15.30
2018-05-17T17:04:48.735Z,12.53
2018-05-17T17:07:18.885Z,13.53
2018-05-17T17:09:49.691Z,12.23
2018-05-17T17:12:19.213Z,18.87
2018-05-17T17:14:48.835Z,13.33
2018-05-17T17:17:18.507Z,14.10
2018-05-17T17:19:48.574Z,17.28
2018-05-17T17:22:18.624Z,12.03
2018-05-17T17:24:48.476Z,11.67
2018-05-17T17:27:17.956Z,16.47
2018-05-17T17:29:47.431Z,15.00
2018-05-17T17:32:16.877Z,16.33
2018-05-17T17:34:46.731Z,12.67
2018-05-17T17:37:16.216Z,17.67
2018-05-17T17:39:45.704Z,13.43
2018-05-17T17:42:15.182Z,17.70
2018-05-17T17:44:45.014Z,16.63
2018-05-17T17:47:14.494Z,15.23
2018-05-17T17:49:44.003Z,14.20
2018-05-17T17:52:13.448Z,22.07
2018-05-17T17:54:42.905Z,16.00
2018-05-17T17:57:12.407Z,12.30
2018-05-17T17:59:42.253Z,20.33
2018-05-17T18:02:11.732Z,13.40
2018-05-17T18:04:41.594Z,16.47
2018-05-17T18:07:11.025Z,26.47
2018-05-17T18:15:24.822Z,19.37
2018-05-17T18:17:54.285Z,16.00
2018-05-17T18:20:23.762Z,18.00
2018-05-17T18:22:53.424Z,17.30
2018-05-17T18:25:22.871Z,22.00
2018-05-17T18:27:52.325Z,17.17
2018-05-17T18:30:21.805Z,16.73
2018-05-17T18:32:51.275Z,21.63
2018-05-17T18:35:20.743Z,25.03
2018-05-17T18:37:50.193Z,18.60
2018-05-17T18:40:20.077Z,18.27
2018-05-17T18:42:49.553Z,27.57
2018-05-17T18:45:19.015Z,16.53
2018-05-17T18:47:48.488Z,28.13
2018-05-17T18:50:18.353Z,15.57
2018-05-17T18:52:47.830Z,24.50
2018-05-17T18:55:22.913Z,18.63
2018-05-17T18:57:47.381Z,25.80
2018-05-17T19:00:17.319Z,28.17
2018-05-17T19:02:46.954Z,16.70
2018-05-17T19:05:16.253Z,19.53
2018-05-17T19:07:46.129Z,19.30
2018-05-17T19:10:15.577Z,19.73
2018-05-17T19:12:45.013Z,19.50
2018-05-17T19:15:14.501Z,27.90
2018-05-17T19:17:43.944Z,21.30
2018-05-17T19:20:13.069Z,19.90
2018-05-17T19:22:42.950Z,22.07
2018-05-17T19:25:12.389Z,24.70
2018-05-17T19:27:41.837Z,20.07
2018-05-17T19:30:11.304Z,17.33
2018-05-17T19:32:40.768Z,33.03
2018-05-17T19:35:10.197Z,17.20
2018-05-17T19:37:39.738Z,24.00
2018-05-17T19:40:09.594Z,24.03
2018-05-17T19:42:39.044Z,28.03
2018-05-17T19:45:09.821Z,21.80
2018-05-17T19:47:39.413Z,24.97
2018-05-17T19:50:08.845Z,28.27
2018-05-17T19:52:38.314Z,17.93
2018-05-17T19:55:07.747Z,20.27
2018-05-17T19:57:37.212Z,21.47
2018-05-17T20:00:06.014Z,27.00
2018-05-17T20:02:35.465Z,20.53
2018-05-17T20:05:05.339Z,28.23
2018-05-17T20:07:35.001Z,21.93
2018-05-17T20:10:04.174Z,24.03
2018-05-17T20:12:33.615Z,28.73
2018-05-17T20:15:03.088Z,24.73
2018-05-17T20:17:32.554Z,25.43
2018-05-17T20:20:01.990Z,23.37
2018-05-17T20:25:31.050Z,27.87
2018-05-17T20:28:00.517Z,36.03
2018-05-17T20:30:30.007Z,30.27
2018-05-17T20:32:59.469Z,21.27
2018-05-17T20:35:28.932Z,24.87
2018-05-17T20:37:58.371Z,26.70
2018-05-17T20:40:27.817Z,25.60
2018-05-17T20:42:57.265Z,24.43
2018-05-17T20:45:27.141Z,28.47
2018-05-17T20:47:56.594Z,30.13
2018-05-17T20:50:26.057Z,28.83
2018-05-17T20:52:55.504Z,23.00
2018-05-17T20:55:24.976Z,31.07
2018-05-17T20:57:54.831Z,26.10
2018-05-17T21:00:24.324Z,23.47
2018-05-17T21:02:53.997Z,26.23
2018-05-17T21:05:23.443Z,24.70
2018-05-17T21:07:52.913Z,32.83
2018-05-17T21:10:22.350Z,40.93
2018-05-17T21:12:51.857Z,27.97
2018-05-17T21:15:21.476Z,23.83
2018-05-17T21:17:50.926Z,29.63
2018-05-17T21:20:20.098Z,20.03
2018-05-17T21:22:49.975Z,27.20
2018-05-17T21:25:19.418Z,24.10
2018-05-17T21:27:48.886Z,24.70
2018-05-17T21:30:18.346Z,28.00
2018-05-17T21:32:47.812Z,27.43
2018-05-17T21:35:17.652Z,20.97
2018-05-17T21:37:47.102Z,24.37
2018-05-17T21:40:16.543Z,21.77
2018-05-17T21:42:45.988Z,19.87
2018-05-17T21:45:15.880Z,29.20
2018-05-17T21:47:45.360Z,28.17
2018-05-17T21:50:14.860Z,22.17
2018-05-17T21:52:44.758Z,26.93
2018-05-17T21:55:14.198Z,24.10
2018-05-17T21:57:43.435Z,25.13
2018-05-17T22:00:12.628Z,26.60
2018-05-17T22:02:42.253Z,20.13
2018-05-17T22:05:11.591Z,24.73
2018-05-17T22:07:41.465Z,35.13
2018-05-17T22:10:10.920Z,33.07
2018-05-17T22:12:40.765Z,23.67
2018-05-17T22:15:10.632Z,25.53
2018-05-17T22:17:40.105Z,24.60
2018-05-17T22:20:09.545Z,23.90
2018-05-17T22:22:39.012Z,24.00
2018-05-17T22:25:08.489Z,21.73
2018-05-17T22:27:37.943Z,26.30
2018-05-17T22:30:07.423Z,20.40
2018-05-17T22:32:36.597Z,22.00
2018-05-17T22:35:06.067Z,22.27
2018-05-17T22:37:35.508Z,18.40
2018-05-17T22:40:04.993Z,17.30
2018-05-17T22:42:33.773Z,25.40
2018-05-17T22:45:03.249Z,28.27
2018-05-17T22:47:34.603Z,29.47
2018-05-17T22:50:03.737Z,27.17
2018-05-17T22:52:33.185Z,21.50
2018-05-17T22:55:02.652Z,25.93
2018-05-17T22:57:43.204Z,31.70
2018-05-17T23:00:12.481Z,21.30
2018-05-17T23:02:41.426Z,29.63
2018-05-17T23:05:10.248Z,20.23
2018-05-17T23:07:39.701Z,21.40
2018-05-17T23:10:08.872Z,26.30
2018-05-17T23:12:38.049Z,20.23
2018-05-17T23:15:07.643Z,29.20
2018-05-17T23:17:37.120Z,19.90
2018-05-17T23:20:06.978Z,24.83
2018-05-17T23:22:36.573Z,25.93
2018-05-17T23:25:08.884Z,32.50
2018-05-17T23:27:38.380Z,18.67
2018-05-17T23:30:08.033Z,21.17
2018-05-17T23:32:36.828Z,33.43
2018-05-17T23:35:06.298Z,18.83
2018-05-17T23:37:35.777Z,24.30
2018-05-17T23:40:16.078Z,27.23
2018-05-17T23:42:45.270Z,20.50
2018-05-17T23:45:14.726Z,21.50
2018-05-17T23:47:44.193Z,32.97
2018-05-17T23:50:13.665Z,26.77
2018-05-17T23:52:43.145Z,17.73
2018-05-17T23:55:12.589Z,28.97
2018-05-17T23:57:42.060Z,25.80
